Time;durP1;ratioP1;P1;durP2;ratioP2;P2;SDS_P1;SDS_P2;PMS_P1;PMS_P2;Temp;Humidity;BMP_temperature;BMP_pressure;BME280_temperature;BME280_humidity;BME280_pressure;Samples;Min_cycle;Max_cycle;Signal;HPM_P1;HPM_P2
2023/01/06 00:01:07;;;;;;;;;;;;;;;12.44;54.19;99900.16;4479169;32;33096;-70
2023/01/06 00:03:35;;;;;;;;;;;;;;;11.57;56.19;99911.34;4477409;32;33059;-69
2023/01/06 00:06:04;;;;;;;;;;;;;;;11.62;56.31;99925.25;4472677;32;35412;-69
2023/01/06 00:08:35;;;;;;;;;;;;;;;11.31;57.40;99926.72;4469579;31;34110;-69
2023/01/06 00:11:06;;;;;;;;;;;;;;;11.88;55.60;99939.37;4481240;32;32174;-69
2023/01/06 00:13:33;;;;;;;;;;;;;;;11.52;56.42;99939.47;4478718;32;34128;-67
2023/01/06 00:16:04;;;;;;;;;;;;;;;11.79;56.11;99940.06;4474297;32;34062;-69
2023/01/06 00:18:32;;;;;;;;;;;;;;;11.52;56.59;99943.00;4471245;32;34729;-67
2023/01/06 00:21:00;;;;;;;;;;;;;;;11.75;56.06;99938.59;4475763;32;33444;-67
2023/01/06 00:23:27;;;;;;;;;;;;;;;11.62;55.95;99937.78;4472867;32;34056;-67
2023/01/06 00:25:54;;;;;;;;;;;;;;;11.71;55.91;99931.72;4473967;32;34283;-68
2023/01/06 00:28:22;;;;;;;;;;;;;;;11.25;57.35;99929.84;4478198;32;35020;-67
2023/01/06 00:30:49;;;;;;;;;;;;;;;11.41;57.03;99929.56;4474011;32;33344;-67
2023/01/06 00:33:17;;;;;;;;;;;;;;;11.34;58.12;99931.00;4466066;32;35335;-68
2023/01/06 00:35:44;;;;;;;;;;;;;;;11.21;57.93;99933.75;4477478;32;35026;-68
2023/01/06 00:38:11;;;;;;;;;;;;;;;11.36;57.58;99946.00;4468807;32;33778;-68
2023/01/06 00:40:39;;;;;;;;;;;;;;;11.23;57.49;99952.34;4467876;32;31915;-66
2023/01/06 00:43:06;;;;;;;;;;;;;;;11.62;56.74;99959.22;4474304;31;33753;-68
2023/01/06 00:45:33;;;;;;;;;;;;;;;12.04;55.30;99967.72;4480361;32;34609;-68
2023/01/06 00:48:01;;;;;;;;;;;;;;;11.91;55.91;99972.28;4478535;31;34130;-69
2023/01/06 00:50:28;;;;;;;;;;;;;;;11.46;57.25;99967.59;4475124;31;33163;-69
2023/01/06 00:52:55;;;;;;;;;;;;;;;11.47;56.79;99969.31;4467315;32;32700;-72
2023/01/06 00:55:23;;;;;;;;;;;;;;;11.67;56.24;99970.47;4466755;32;35375;-72
2023/01/06 00:57:51;;;;;;;;;;;;;;;12.24;54.64;99972.38;4473045;32;34204;-69
2023/01/06 01:00:19;;;;;;;;;;;;;;;11.79;55.87;99974.91;4477391;32;34432;-69
2023/01/06 01:02:46;;;;;;;;;;;;;;;11.71;56.16;99968.41;4454526;32;32849;-72
2023/01/06 01:05:14;;;;;;;;;;;;;;;11.63;56.58;99969.84;4452980;32;35252;-69
2023/01/06 01:07:41;;;;;;;;;;;;;;;11.82;56.13;99976.50;4477409;32;33889;-69
2023/01/06 01:10:09;;;;;;;;;;;;;;;11.84;55.47;99978.13;4472916;32;33656;-69
2023/01/06 01:12:36;;;;;;;;;;;;;;;11.79;55.68;99982.09;4479320;32;35125;-70
2023/01/06 01:15:04;;;;;;;;;;;;;;;11.61;56.76;99992.38;4475810;32;35471;-69
2023/01/06 01:17:31;;;;;;;;;;;;;;;11.76;56.43;99995.75;4480832;32;34642;-69
2023/01/06 01:19:59;;;;;;;;;;;;;;;11.72;56.15;99996.94;4467351;32;33428;-69
2023/01/06 01:22:28;;;;;;;;;;;;;;;11.57;56.73;100001.62;4466902;32;33680;-71
2023/01/06 01:24:55;;;;;;;;;;;;;;;11.68;56.78;99999.00;4457490;32;32336;-70
2023/01/06 01:27:23;;;;;;;;;;;;;;;12.18;55.16;100007.72;4467835;32;34006;-69
2023/01/06 01:29:51;;;;;;;;;;;;;;;12.42;54.57;100017.53;4468462;32;31859;-70
2023/01/06 01:32:19;;;;;;;;;;;;;;;11.63;56.49;100019.94;4469112;32;35059;-70
2023/01/06 01:34:46;;;;;;;;;;;;;;;12.22;55.00;100027.13;4465072;32;35354;-71
2023/01/06 01:37:14;;;;;;;;;;;;;;;12.35;54.48;100035.94;4474816;31;33976;-70
2023/01/06 01:39:42;;;;;;;;;;;;;;;12.09;55.38;100021.84;4463213;32;31772;-72
2023/01/06 01:42:14;;;;;;;;;;;;;;;12.10;55.47;100020.88;4464942;32;34070;-70
2023/01/06 01:44:44;;;;;;;;;;;;;;;11.78;56.42;100021.47;4467210;31;36107;-68
2023/01/06 01:47:13;;;;;;;;;;;;;;;12.15;55.50;100021.38;4472366;32;32848;-70
2023/01/06 01:49:41;;;;;;;;;;;;;;;12.33;55.16;100021.81;4451952;32;33015;-71
2023/01/06 01:52:08;;;;;;;;;;;;;;;11.56;57.17;100016.87;4466357;32;32487;-70
2023/01/06 01:54:35;;;;;;;;;;;;;;;11.84;56.83;100021.03;4469192;32;34094;-71
2023/01/06 01:57:04;;;;;;;;;;;;;;;11.99;56.23;100018.16;4456550;32;34350;-70
2023/01/06 01:59:31;;;;;;;;;;;;;;;12.16;55.87;100025.75;4451781;32;33773;-72
2023/01/06 02:01:59;;;;;;;;;;;;;;;12.06;55.88;100017.56;4450882;32;34384;-71
2023/01/06 02:04:27;;;;;;;;;;;;;;;11.81;57.03;100025.72;4457452;32;33140;-70
2023/01/06 02:06:54;;;;;;;;;;;;;;;11.61;57.20;100027.25;4452450;32;35001;-71
2023/01/06 02:09:31;;;;;;;;;;;;;;;11.60;57.28;100026.38;4475146;32;33008;-70
2023/01/06 02:11:59;;;;;;;;;;;;;;;11.58;56.86;100030.16;4457444;32;32626;-69
2023/01/06 02:14:27;;;;;;;;;;;;;;;11.62;57.03;100035.19;4460953;32;34780;-71
2023/01/06 02:17:05;;;;;;;;;;;;;;;11.37;57.20;100036.13;4470822;32;34448;-69
2023/01/06 02:19:35;;;;;;;;;;;;;;;11.32;57.52;100035.59;4465391;32;33149;-69
2023/01/06 02:22:13;;;;;;;;;;;;;;;11.63;56.82;100033.34;4470631;32;34116;-70
2023/01/06 02:24:54;;;;;;;;;;;;;;;11.77;56.40;100041.19;4453471;32;32885;-70
2023/01/06 02:27:40;;;;;;;;;;;;;;;11.65;57.27;100047.47;4466098;32;32269;-69
2023/01/06 02:30:07;;;;;;;;;;;;;;;11.85;56.19;100048.72;4469274;32;34333;-68
2023/01/06 02:32:50;;;;;;;;;;;;;;;11.62;56.96;100051.28;4468033;32;33934;-71
2023/01/06 02:35:29;;;;;;;;;;;;;;;11.55;57.17;100057.19;4458135;31;34650;-68
2023/01/06 02:37:56;;;;;;;;;;;;;;;11.54;57.26;100048.28;4464537;32;33740;-68
2023/01/06 02:40:30;;;;;;;;;;;;;;;11.50;57.47;100052.16;4468491;32;33304;-70
2023/01/06 02:42:59;;;;;;;;;;;;;;;11.40;57.76;100046.63;4469826;32;33650;-68
2023/01/06 02:45:32;;;;;;;;;;;;;;;11.35;57.89;100039.88;4470767;32;34597;-68
2023/01/06 02:48:19;;;;;;;;;;;;;;;11.21;58.36;100050.78;4467961;32;34363;-69
2023/01/06 02:50:50;;;;;;;;;;;;;;;11.22;58.36;100036.41;4465237;32;34334;-68
2023/01/06 02:53:26;;;;;;;;;;;;;;;11.24;58.04;100047.88;4460751;32;33906;-69
2023/01/06 02:55:54;;;;;;;;;;;;;;;10.71;59.08;100046.22;4457577;32;35187;-72
2023/01/06 02:58:40;;;;;;;;;;;;;;;10.84;59.19;100059.59;4457252;32;34121;-70
2023/01/06 03:01:15;;;;;;;;;;;;;;;10.98;58.79;100063.13;4471896;32;33558;-70
2023/01/06 03:03:44;;;;;;;;;;;;;;;10.84;59.10;100066.78;4474259;32;35351;-69
2023/01/06 03:06:14;;;;;;;;;;;;;;;11.05;58.79;100067.94;4470326;32;34986;-69
2023/01/06 03:08:42;;;;;;;;;;;;;;;10.80;59.59;100084.03;4471565;31;34264;-69
2023/01/06 03:11:09;;;;;;;;;;;;;;;10.98;58.90;100081.84;4469886;32;33158;-69
2023/01/06 03:13:41;;;;;;;;;;;;;;;10.62;60.01;100081.66;4470458;32;35076;-69
2023/01/06 03:16:10;;;;;;;;;;;;;;;10.96;58.72;100090.88;4460388;32;33976;-68
2023/01/06 03:18:38;;;;;;;;;;;;;;;10.56;59.67;100086.59;4481661;32;34716;-69
2023/01/06 03:21:08;;;;;;;;;;;;;;;10.90;58.94;100085.09;4452291;32;31814;-69
2023/01/06 03:23:36;;;;;;;;;;;;;;;11.07;58.69;100086.56;4475614;32;33689;-69
2023/01/06 03:26:04;;;;;;;;;;;;;;;11.26;57.41;100081.59;4460700;32;33788;-69
2023/01/06 03:28:32;;;;;;;;;;;;;;;11.51;56.77;100082.50;4457275;32;34351;-68
2023/01/06 03:31:03;;;;;;;;;;;;;;;11.34;56.67;100081.91;4471807;32;34327;-70
2023/01/06 03:33:49;;;;;;;;;;;;;;;10.90;58.28;100085.09;4469784;32;34029;-71
2023/01/06 03:36:26;;;;;;;;;;;;;;;11.19;57.89;100078.50;4472280;32;34188;-70
2023/01/06 03:38:53;;;;;;;;;;;;;;;11.23;57.56;100076.47;4469624;32;34305;-69
2023/01/06 03:44:32;;;;;;;;;;;;;;;11.03;58.20;100069.00;4470851;32;34927;-67
2023/01/06 03:47:05;;;;;;;;;;;;;;;11.10;58.64;100072.94;4457655;32;35853;-69
2023/01/06 03:49:34;;;;;;;;;;;;;;;11.37;57.34;100070.13;4471136;32;34477;-69
2023/01/06 03:52:06;;;;;;;;;;;;;;;11.36;56.91;100073.75;4453114;32;33661;-70
2023/01/06 03:54:37;;;;;;;;;;;;;;;10.85;58.74;100072.03;4468075;32;34733;-69
2023/01/06 03:57:06;;;;;;;;;;;;;;;11.09;58.17;100073.94;4469953;32;34435;-69
2023/01/06 03:59:37;;;;;;;;;;;;;;;10.85;58.32;100073.84;4473439;32;33052;-70
2023/01/06 04:02:05;;;;;;;;;;;;;;;10.76;59.71;100083.41;4461633;32;33429;-70
2023/01/06 04:04:33;;;;;;;;;;;;;;;10.95;58.31;100077.59;4462503;32;34021;-70
2023/01/06 04:07:01;;;;;;;;;;;;;;;10.78;58.94;100092.16;4469602;32;35505;-69
2023/01/06 04:09:28;;;;;;;;;;;;;;;10.80;58.94;100100.94;4467282;32;34037;-69
2023/01/06 04:14:42;;;;;;;;;;;;;;;11.00;58.41;100112.94;4470834;32;34359;-69
2023/01/06 04:17:10;;;;;;;;;;;;;;;11.23;57.70;100119.31;4464704;32;34350;-71
2023/01/06 04:19:40;;;;;;;;;;;;;;;10.96;58.31;100125.69;4479655;31;35250;-70
2023/01/06 04:22:07;;;;;;;;;;;;;;;11.26;57.52;100128.97;4479670;32;32901;-70
2023/01/06 04:24:34;;;;;;;;;;;;;;;11.37;57.39;100129.94;4471154;31;34371;-69
2023/01/06 04:27:02;;;;;;;;;;;;;;;11.56;56.56;100123.25;4478382;31;34473;-70
2023/01/06 04:29:30;;;;;;;;;;;;;;;11.37;57.35;100121.91;4476613;31;34258;-69
2023/01/06 04:31:57;;;;;;;;;;;;;;;11.20;58.41;100124.91;4472236;32;34468;-68
2023/01/06 04:34:25;;;;;;;;;;;;;;;11.25;57.66;100120.09;4469704;31;36495;-69
2023/01/06 04:36:52;;;;;;;;;;;;;;;11.21;58.01;100115.94;4474294;32;34164;-70
2023/01/06 04:39:20;;;;;;;;;;;;;;;10.94;58.75;100118.72;4469592;31;34988;-70
2023/01/06 04:41:47;;;;;;;;;;;;;;;11.05;58.48;100116.16;4465976;32;33392;-69
2023/01/06 04:44:14;;;;;;;;;;;;;;;10.82;59.19;100111.53;4466822;31;33974;-68
2023/01/06 04:46:42;;;;;;;;;;;;;;;10.66;59.90;100112.63;4470611;31;34381;-68
2023/01/06 04:49:09;;;;;;;;;;;;;;;10.65;60.08;100113.56;4471158;32;35919;-70
2023/01/06 04:51:36;;;;;;;;;;;;;;;10.73;59.75;100105.88;4475606;31;33245;-70
2023/01/06 04:54:03;;;;;;;;;;;;;;;10.65;59.94;100118.06;4470391;32;35326;-70
2023/01/06 04:56:31;;;;;;;;;;;;;;;10.62;60.08;100121.81;4470563;32;32829;-68
2023/01/06 04:58:58;;;;;;;;;;;;;;;10.63;59.77;100117.34;4458444;32;33549;-69
2023/01/06 05:01:26;;;;;;;;;;;;;;;10.89;59.12;100128.91;4476943;32;34277;-71
2023/01/06 05:03:53;;;;;;;;;;;;;;;10.96;59.05;100140.91;4468495;32;34138;-71
2023/01/06 05:06:20;;;;;;;;;;;;;;;11.01;58.76;100145.94;4479267;32;34661;-70
2023/01/06 05:08:48;;;;;;;;;;;;;;;10.75;59.66;100145.91;4470090;32;33985;-71
2023/01/06 05:11:16;;;;;;;;;;;;;;;10.81;59.55;100152.69;4472120;32;33388;-68
2023/01/06 05:13:43;;;;;;;;;;;;;;;10.73;60.17;100156.75;4459882;32;34959;-72
2023/01/06 05:16:13;;;;;;;;;;;;;;;11.03;59.12;100165.44;4466479;32;33726;-70
2023/01/06 05:18:41;;;;;;;;;;;;;;;11.08;58.93;100171.34;4459806;32;34967;-72
2023/01/06 05:21:09;;;;;;;;;;;;;;;10.48;60.51;100168.28;4469422;32;34960;-69
2023/01/06 05:23:37;;;;;;;;;;;;;;;10.75;60.17;100166.50;4474326;31;34309;-69
2023/01/06 05:26:04;;;;;;;;;;;;;;;11.04;59.12;100172.50;4477680;32;34261;-69
2023/01/06 05:28:32;;;;;;;;;;;;;;;10.69;60.51;100170.47;4474240;31;34303;-69
2023/01/06 05:30:59;;;;;;;;;;;;;;;10.56;60.92;100166.88;4481893;32;33398;-72
2023/01/06 05:33:27;;;;;;;;;;;;;;;10.56;60.71;100169.56;4476365;32;33931;-70
2023/01/06 05:36:00;;;;;;;;;;;;;;;10.55;60.72;100168.72;4468548;32;34083;-70
2023/01/06 05:38:27;;;;;;;;;;;;;;;10.56;60.83;100175.81;4471505;32;34444;-68
2023/01/06 05:40:55;;;;;;;;;;;;;;;11.02;59.43;100177.13;4471128;32;33815;-68
2023/01/06 05:43:23;;;;;;;;;;;;;;;10.96;59.47;100179.25;4472576;32;33247;-70
2023/01/06 05:45:51;;;;;;;;;;;;;;;10.76;60.11;100185.13;4464358;32;34159;-72
2023/01/06 05:48:19;;;;;;;;;;;;;;;11.05;59.10;100188.47;4463621;32;33808;-70
2023/01/06 05:50:46;;;;;;;;;;;;;;;10.88;59.53;100205.72;4466258;31;34854;-69
2023/01/06 05:53:13;;;;;;;;;;;;;;;11.03;59.38;100209.16;4469591;32;35329;-69
2023/01/06 05:55:41;;;;;;;;;;;;;;;11.18;58.55;100197.38;4467519;31;34196;-69
2023/01/06 05:58:08;;;;;;;;;;;;;;;11.21;58.74;100207.03;4470077;32;34566;-69
2023/01/06 06:00:35;;;;;;;;;;;;;;;11.25;58.70;100213.87;4470937;32;33230;-69
2023/01/06 06:03:03;;;;;;;;;;;;;;;11.48;57.66;100230.16;4472016;32;35650;-69
2023/01/06 06:05:30;;;;;;;;;;;;;;;11.28;58.47;100227.06;4471088;32;35374;-72
2023/01/06 06:07:57;;;;;;;;;;;;;;;11.80;56.66;100227.84;4471327;31;34708;-69
2023/01/06 06:10:25;;;;;;;;;;;;;;;11.58;57.18;100228.53;4471006;32;34177;-72
2023/01/06 06:12:52;;;;;;;;;;;;;;;11.98;55.69;100226.56;4475278;31;34037;-70
2023/01/06 06:15:19;;;;;;;;;;;;;;;12.07;55.38;100236.63;4472178;32;34176;-69
2023/01/06 06:17:47;;;;;;;;;;;;;;;11.88;56.12;100230.87;4463154;32;33608;-71
2023/01/06 06:20:14;;;;;;;;;;;;;;;11.98;55.97;100228.38;4462439;32;33310;-72
2023/01/06 06:22:41;;;;;;;;;;;;;;;11.98;55.94;100229.25;4468673;32;33982;-71
2023/01/06 06:25:08;;;;;;;;;;;;;;;12.01;55.64;100231.69;4474200;32;33874;-70
2023/01/06 06:27:37;;;;;;;;;;;;;;;11.14;57.97;100225.34;4469926;31;34377;-70
2023/01/06 06:30:05;;;;;;;;;;;;;;;11.54;57.15;100235.09;4465624;32;33104;-70
2023/01/06 06:32:32;;;;;;;;;;;;;;;11.63;57.29;100235.28;4465982;32;34526;-69
2023/01/06 06:35:00;;;;;;;;;;;;;;;11.40;57.61;100239.59;4470106;32;33504;-68
2023/01/06 06:37:27;;;;;;;;;;;;;;;11.79;56.61;100247.59;4473419;32;34896;-68
2023/01/06 06:39:54;;;;;;;;;;;;;;;12.10;55.64;100251.63;4466604;32;33364;-70
2023/01/06 06:42:22;;;;;;;;;;;;;;;12.37;55.07;100255.94;4462108;32;34022;-69
2023/01/06 06:44:49;;;;;;;;;;;;;;;12.62;54.25;100261.19;4461205;31;34260;-68
2023/01/06 06:47:18;;;;;;;;;;;;;;;12.87;53.29;100249.44;4473021;31;34470;-69
2023/01/06 06:49:45;;;;;;;;;;;;;;;13.02;52.76;100250.94;4472726;32;33412;-70
2023/01/06 06:52:13;;;;;;;;;;;;;;;12.82;53.22;100257.84;4464320;32;34183;-70
2023/01/06 06:54:43;;;;;;;;;;;;;;;12.98;52.81;100252.16;4470978;32;36209;-68
2023/01/06 06:57:10;;;;;;;;;;;;;;;12.91;52.32;100250.94;4471291;31;34092;-69
2023/01/06 06:59:37;;;;;;;;;;;;;;;12.77;52.85;100251.97;4469607;32;33476;-68
2023/01/06 07:02:04;;;;;;;;;;;;;;;13.90;50.02;100261.13;4470712;31;34289;-69
2023/01/06 07:04:32;;;;;;;;;;;;;;;13.55;50.89;100253.16;4471599;32;34075;-70
2023/01/06 07:06:59;;;;;;;;;;;;;;;15.09;47.81;100260.28;4464440;32;33605;-68
2023/01/06 07:09:27;;;;;;;;;;;;;;;16.84;43.76;100266.34;4473652;31;33291;-68
2023/01/06 07:11:54;;;;;;;;;;;;;;;17.92;40.60;100268.72;4469956;31;34235;-69
2023/01/06 07:14:21;;;;;;;;;;;;;;;19.02;38.61;100265.03;4474698;32;33970;-69
2023/01/06 07:16:49;;;;;;;;;;;;;;;20.00;36.09;100266.56;4466558;32;34503;-69
2023/01/06 07:19:16;;;;;;;;;;;;;;;19.74;35.94;100276.59;4471397;32;33446;-69
2023/01/06 07:21:43;;;;;;;;;;;;;;;19.17;37.08;100279.75;4477947;32;34190;-70
2023/01/06 07:24:10;;;;;;;;;;;;;;;18.81;37.50;100296.03;4455187;32;34995;-70
2023/01/06 07:26:38;;;;;;;;;;;;;;;18.40;38.44;100300.12;4470531;32;34515;-69
2023/01/06 07:29:05;;;;;;;;;;;;;;;18.52;38.58;100298.94;4465504;32;32109;-70
2023/01/06 07:31:32;;;;;;;;;;;;;;;18.73;38.21;100286.97;4465823;32;34223;-69
2023/01/06 07:34:00;;;;;;;;;;;;;;;18.73;37.90;100289.69;4472996;32;35188;-70
2023/01/06 07:36:27;;;;;;;;;;;;;;;18.92;37.76;100283.25;4476256;32;34871;-69
2023/01/06 07:38:54;;;;;;;;;;;;;;;19.27;37.20;100285.94;4464879;32;33332;-70
2023/01/06 07:41:22;;;;;;;;;;;;;;;19.72;35.89;100286.78;4466415;32;35863;-69
2023/01/06 07:43:49;;;;;;;;;;;;;;;19.97;35.62;100280.47;4473807;32;34396;-69
2023/01/06 07:46:16;;;;;;;;;;;;;;;20.99;33.90;100280.41;4464806;32;34882;-70
2023/01/06 07:48:44;;;;;;;;;;;;;;;21.30;32.77;100283.31;4465543;32;33348;-71
2023/01/06 07:51:11;;;;;;;;;;;;;;;21.58;32.81;100281.97;4468845;32;33863;-69
2023/01/06 07:53:38;;;;;;;;;;;;;;;22.16;31.17;100279.12;4469069;32;35144;-69
2023/01/06 07:56:06;;;;;;;;;;;;;;;21.38;32.54;100277.91;4462931;32;34098;-71
2023/01/06 07:58:33;;;;;;;;;;;;;;;21.52;32.27;100281.81;4466818;32;30783;-69
2023/01/06 08:01:04;;;;;;;;;;;;;;;21.67;32.15;100285.53;4470967;31;32519;-70
2023/01/06 08:03:32;;;;;;;;;;;;;;;21.63;32.18;100289.59;4469620;32;35267;-69
2023/01/06 08:06:04;;;;;;;;;;;;;;;21.61;32.43;100278.91;4467735;32;33765;-70
2023/01/06 08:08:31;;;;;;;;;;;;;;;20.69;33.54;100286.34;4466528;32;33481;-70
2023/01/06 08:10:58;;;;;;;;;;;;;;;20.59;34.22;100290.22;4452262;32;34357;-70
2023/01/06 08:13:25;;;;;;;;;;;;;;;20.53;33.86;100282.75;4469027;31;34319;-69
2023/01/06 08:15:53;;;;;;;;;;;;;;;20.34;34.68;100278.41;4471106;32;33823;-70
2023/01/06 08:18:20;;;;;;;;;;;;;;;21.14;32.99;100276.00;4476788;31;32860;-70
2023/01/06 08:20:47;;;;;;;;;;;;;;;20.76;33.79;100263.91;4473853;32;34218;-70
2023/01/06 08:23:14;;;;;;;;;;;;;;;20.60;33.63;100260.13;4468806;32;35366;-69
2023/01/06 08:25:42;;;;;;;;;;;;;;;20.21;33.99;100260.69;4474699;32;34089;-70
2023/01/06 08:28:09;;;;;;;;;;;;;;;19.96;34.92;100253.44;4470020;32;34377;-70
2023/01/06 08:30:38;;;;;;;;;;;;;;;18.77;36.94;100251.25;4470405;32;33086;-69
2023/01/06 08:33:06;;;;;;;;;;;;;;;19.95;34.53;100251.75;4466195;32;34823;-70
2023/01/06 08:35:33;;;;;;;;;;;;;;;20.14;34.40;100258.81;4471151;32;34128;-70
2023/01/06 08:38:01;;;;;;;;;;;;;;;20.09;34.19;100259.28;4476919;32;33156;-70
2023/01/06 08:40:28;;;;;;;;;;;;;;;19.99;34.68;100250.41;4473087;31;32384;-69
2023/01/06 08:42:55;;;;;;;;;;;;;;;19.35;35.00;100244.41;4466752;32;35290;-69
2023/01/06 08:45:22;;;;;;;;;;;;;;;18.53;36.50;100251.84;4470970;32;33997;-69
2023/01/06 08:47:50;;;;;;;;;;;;;;;18.47;36.55;100254.31;4455305;32;31774;-70
2023/01/06 08:50:17;;;;;;;;;;;;;;;18.35;36.81;100250.94;4466073;32;34201;-70
2023/01/06 08:52:44;;;;;;;;;;;;;;;18.54;35.99;100256.25;4461619;32;32884;-70
2023/01/06 08:55:12;;;;;;;;;;;;;;;16.81;39.56;100259.38;4466132;32;33333;-70
2023/01/06 08:57:39;;;;;;;;;;;;;;;17.18;38.75;100264.06;4469098;32;33414;-69
2023/01/06 09:00:07;;;;;;;;;;;;;;;16.91;38.25;100279.16;4470017;32;34548;-69
2023/01/06 09:02:34;;;;;;;;;;;;;;;16.39;39.54;100283.06;4465003;32;32767;-69
2023/01/06 09:05:02;;;;;;;;;;;;;;;16.37;40.04;100290.44;4468798;32;34380;-69
2023/01/06 09:07:29;;;;;;;;;;;;;;;15.62;41.65;100295.25;4472140;32;32908;-69
2023/01/06 09:09:57;;;;;;;;;;;;;;;15.54;41.81;100298.63;4473358;32;33100;-70
2023/01/06 09:12:24;;;;;;;;;;;;;;;15.69;41.63;100301.00;4472612;31;33008;-70
2023/01/06 09:14:51;;;;;;;;;;;;;;;15.10;43.62;100299.72;4442387;32;930282;-70
2023/01/06 09:17:18;;;;;;;;;;;;;;;15.29;42.75;100304.41;4469165;32;33212;-70
2023/01/06 09:19:46;;;;;;;;;;;;;;;14.86;44.30;100306.22;4475686;32;33895;-69
2023/01/06 09:22:13;;;;;;;;;;;;;;;14.30;45.72;100305.47;4478744;32;35533;-69
2023/01/06 09:24:40;;;;;;;;;;;;;;;14.58;44.85;100304.97;4477220;31;35080;-70
2023/01/06 09:27:07;;;;;;;;;;;;;;;14.60;45.85;100307.50;4474102;32;33769;-69
2023/01/06 09:29:35;;;;;;;;;;;;;;;14.76;45.42;100307.09;4476172;32;34255;-69
2023/01/06 09:32:02;;;;;;;;;;;;;;;14.62;45.92;100319.03;4475376;32;34821;-68
2023/01/06 09:34:29;;;;;;;;;;;;;;;14.57;45.44;100314.00;4480479;32;34142;-69
2023/01/06 09:36:57;;;;;;;;;;;;;;;14.19;46.97;100314.44;4475222;32;34334;-71
2023/01/06 09:39:24;;;;;;;;;;;;;;;14.15;47.16;100312.94;4466921;32;35250;-69
2023/01/06 09:41:51;;;;;;;;;;;;;;;13.81;48.37;100309.44;4484444;32;33937;-70
2023/01/06 09:44:24;;;;;;;;;;;;;;;14.21;47.06;100307.91;4476240;32;34040;-70
2023/01/06 09:46:52;;;;;;;;;;;;;;;14.16;48.17;100304.75;4460926;32;34571;-70
2023/01/06 09:49:24;;;;;;;;;;;;;;;13.88;48.24;100308.81;4451656;32;34704;-69
2023/01/06 09:51:52;;;;;;;;;;;;;;;13.90;48.03;100311.34;4446940;32;32803;-69
2023/01/06 09:54:21;;;;;;;;;;;;;;;13.83;47.99;100307.44;4462723;32;34466;-69
2023/01/06 09:56:52;;;;;;;;;;;;;;;13.45;49.17;100306.81;4456186;32;32720;-70
2023/01/06 09:59:24;;;;;;;;;;;;;;;13.50;49.23;100301.91;4455648;32;35231;-69
2023/01/06 10:01:53;;;;;;;;;;;;;;;13.22;49.78;100303.16;4454504;32;33984;-68
2023/01/06 10:04:24;;;;;;;;;;;;;;;13.62;49.57;100308.19;4454605;32;34299;-68
2023/01/06 10:06:51;;;;;;;;;;;;;;;13.64;49.24;100308.94;4457092;31;31753;-69
2023/01/06 10:09:37;;;;;;;;;;;;;;;13.19;50.49;100311.50;4460631;32;33787;-69
2023/01/06 10:12:23;;;;;;;;;;;;;;;13.32;50.79;100307.87;4469918;32;34327;-68
2023/01/06 10:14:53;;;;;;;;;;;;;;;13.37;50.28;100301.16;4473657;32;33478;-68
2023/01/06 10:17:33;;;;;;;;;;;;;;;13.13;51.30;100301.19;4479226;32;33470;-70
2023/01/06 10:20:00;;;;;;;;;;;;;;;13.77;49.28;100297.16;4466247;32;34023;-69
2023/01/06 10:22:47;;;;;;;;;;;;;;;14.18;48.24;100307.31;4476691;32;35668;-69
2023/01/06 10:25:17;;;;;;;;;;;;;;;14.34;47.68;100299.69;4480854;32;33796;-68
2023/01/06 10:27:44;;;;;;;;;;;;;;;14.05;48.41;100298.53;4478864;32;33346;-68
2023/01/06 10:30:16;;;;;;;;;;;;;;;14.35;48.28;100295.16;4471452;31;34536;-68
2023/01/06 10:32:43;;;;;;;;;;;;;;;14.27;48.34;100292.25;4458388;32;35321;-68
2023/01/06 10:35:12;;;;;;;;;;;;;;;14.75;46.72;100290.06;4463768;32;33104;-69
2023/01/06 10:37:39;;;;;;;;;;;;;;;14.64;46.41;100288.28;4473063;31;30727;-69
2023/01/06 10:40:24;;;;;;;;;;;;;;;15.02;45.23;100289.56;4454304;32;34428;-68
2023/01/06 10:42:56;;;;;;;;;;;;;;;14.87;45.87;100280.97;4480315;32;34765;-70
2023/01/06 10:45:26;;;;;;;;;;;;;;;14.53;46.57;100292.84;4451133;32;32492;-68
2023/01/06 10:47:54;;;;;;;;;;;;;;;14.82;46.34;100287.72;4470856;32;33379;-68
2023/01/06 10:50:21;;;;;;;;;;;;;;;14.11;47.14;100293.50;4466991;32;34157;-70
2023/01/06 10:52:48;;;;;;;;;;;;;;;14.30;46.99;100286.62;4476183;31;33591;-69
2023/01/06 10:55:19;;;;;;;;;;;;;;;14.18;47.22;100288.47;4464665;31;32476;-70
2023/01/06 10:57:46;;;;;;;;;;;;;;;14.72;46.53;100292.19;4469755;32;32678;-68
2023/01/06 11:00:13;;;;;;;;;;;;;;;15.06;45.90;100288.34;4469064;32;34212;-71
2023/01/06 11:02:42;;;;;;;;;;;;;;;15.56;44.46;100283.12;4478620;31;33897;-70
2023/01/06 11:05:16;;;;;;;;;;;;;;;15.41;44.35;100283.59;4456609;32;34782;-68
2023/01/06 11:08:04;;;;;;;;;;;;;;;15.58;44.17;100285.72;4471995;32;34209;-70
2023/01/06 11:10:45;;;;;;;;;;;;;;;15.41;44.27;100279.09;4471820;32;34762;-71
2023/01/06 11:13:23;;;;;;;;;;;;;;;15.56;44.01;100275.03;4467953;32;35885;-68
2023/01/06 11:15:51;;;;;;;;;;;;;;;16.00;43.05;100281.09;4470167;32;32996;-70
2023/01/06 11:18:23;;;;;;;;;;;;;;;16.03;42.74;100275.44;4473043;32;33723;-70
2023/01/06 11:21:10;;;;;;;;;;;;;;;16.43;41.66;100279.94;4475020;32;35317;-70
2023/01/06 11:23:39;;;;;;;;;;;;;;;16.72;41.59;100271.84;4477450;32;34223;-68
2023/01/06 11:26:10;;;;;;;;;;;;;;;17.09;40.59;100273.03;4471497;32;32832;-70
2023/01/06 11:28:38;;;;;;;;;;;;;;;17.51;39.61;100272.69;4472498;32;34968;-69
2023/01/06 11:31:10;;;;;;;;;;;;;;;17.31;38.95;100267.31;4459948;32;34157;-70
2023/01/06 11:33:37;;;;;;;;;;;;;;;17.45;39.05;100266.84;4460644;32;33032;-69
2023/01/06 11:36:06;;;;;;;;;;;;;;;17.19;39.52;100265.75;4460689;32;33797;-71
2023/01/06 11:38:39;;;;;;;;;;;;;;;17.06;39.67;100263.38;4465516;32;32880;-71
2023/01/06 11:41:07;;;;;;;;;;;;;;;16.99;39.94;100252.28;4459542;32;34139;-69
2023/01/06 11:43:36;;;;;;;;;;;;;;;17.31;39.18;100250.25;4455723;32;34214;-69
2023/01/06 11:46:05;;;;;;;;;;;;;;;17.18;39.29;100253.25;4471058;32;33840;-70
2023/01/06 11:48:39;;;;;;;;;;;;;;;16.61;40.07;100255.78;4475478;31;34467;-69
2023/01/06 11:51:07;;;;;;;;;;;;;;;15.49;42.54;100263.06;4456815;32;35242;-70
2023/01/06 11:53:38;;;;;;;;;;;;;;;15.63;41.77;100253.75;4452009;32;32829;-70
2023/01/06 11:56:08;;;;;;;;;;;;;;;16.28;41.28;100257.03;4469286;32;34233;-69
2023/01/06 11:58:42;;;;;;;;;;;;;;;16.58;40.65;100260.63;4462793;32;32696;-69
2023/01/06 12:01:28;;;;;;;;;;;;;;;16.48;40.21;100261.47;4475572;31;33806;-70
2023/01/06 12:04:11;;;;;;;;;;;;;;;16.64;40.09;100251.97;4467280;31;34216;-69
2023/01/06 12:06:39;;;;;;;;;;;;;;;16.08;41.43;100248.00;4468501;32;33743;-70
2023/01/06 12:09:24;;;;;;;;;;;;;;;16.13;41.46;100240.34;4469677;32;33302;-70
2023/01/06 12:11:51;;;;;;;;;;;;;;;16.61;40.36;100230.63;4463256;32;34181;-68
2023/01/06 12:14:20;;;;;;;;;;;;;;;16.69;40.99;100225.34;4468502;32;35318;-70
2023/01/06 12:17:04;;;;;;;;;;;;;;;16.67;40.55;100216.53;4456737;32;33766;-68
2023/01/06 12:19:34;;;;;;;;;;;;;;;16.37;40.40;100226.50;4462597;32;33370;-71
2023/01/06 12:22:01;;;;;;;;;;;;;;;16.38;40.32;100213.81;4460680;32;34025;-70
2023/01/06 12:24:28;;;;;;;;;;;;;;;15.91;41.25;100210.88;4468867;31;34375;-69
2023/01/06 12:26:56;;;;;;;;;;;;;;;15.99;41.52;100209.22;4457264;32;34089;-70
2023/01/06 12:29:23;;;;;;;;;;;;;;;15.84;41.13;100206.03;4456710;31;33464;-71
2023/01/06 12:31:53;;;;;;;;;;;;;;;15.72;42.85;100214.38;4480642;32;33957;-70
2023/01/06 12:34:23;;;;;;;;;;;;;;;15.85;42.01;100201.47;4450770;32;34227;-71
2023/01/06 12:37:03;;;;;;;;;;;;;;;16.15;41.70;100197.03;4461896;32;34606;-70
2023/01/06 12:39:59;;;;;;;;;;;;;;;15.50;43.29;100200.03;4474572;32;33076;-69
2023/01/06 12:42:28;;;;;;;;;;;;;;;16.16;42.22;100198.72;4425329;32;33984;-69
2023/01/06 12:44:58;;;;;;;;;;;;;;;16.11;41.01;100190.19;4472181;31;33943;-70
2023/01/06 12:47:27;;;;;;;;;;;;;;;16.29;40.45;100186.66;4471713;32;35376;-69
2023/01/06 12:49:59;;;;;;;;;;;;;;;16.43;40.90;100193.47;4454657;32;32840;-71
2023/01/06 12:52:29;;;;;;;;;;;;;;;16.60;40.50;100185.69;4464591;32;33908;-70
2023/01/06 12:54:57;;;;;;;;;;;;;;;16.67;40.48;100178.72;4446198;32;33543;-68